createdAt,value
2023-05-15T00:10:15.174Z,56.00
2023-05-15T00:20:49.952Z,57.80
2023-05-15T00:31:24.856Z,61.10
2023-05-15T00:42:02.247Z,62.80
2023-05-15T00:52:37.908Z,64.20
2023-05-15T01:03:12.686Z,64.20
2023-05-15T01:13:47.292Z,66.00
2023-05-15T01:24:55.987Z,63.80
2023-05-15T01:35:40.848Z,62.40
2023-05-15T01:46:22.104Z,65.10
2023-05-15T01:56:59.205Z,64.00
2023-05-15T02:07:35.017Z,61.70
2023-05-15T02:18:09.845Z,61.60
2023-05-15T02:28:54.966Z,62.30
2023-05-15T02:39:31.054Z,65.00
2023-05-15T02:50:07.152Z,64.40
2023-05-15T03:00:41.740Z,62.40
2023-05-15T03:11:17.628Z,64.20
2023-05-15T03:21:52.481Z,63.00
2023-05-15T03:32:27.439Z,58.70
2023-05-15T03:43:02.088Z,61.70
2023-05-15T03:53:36.996Z,63.10
2023-05-15T04:04:11.850Z,65.40
2023-05-15T04:14:46.936Z,69.30
2023-05-15T04:25:21.774Z,69.00
2023-05-15T04:35:56.734Z,66.40
2023-05-15T04:46:34.864Z,68.10
2023-05-15T04:57:10.463Z,72.50
2023-05-15T05:07:46.629Z,73.90
2023-05-15T05:18:21.504Z,78.80
2023-05-15T05:28:56.207Z,79.20
2023-05-15T05:39:31.237Z,83.60
2023-05-15T05:50:06.903Z,88.30
2023-05-15T06:00:41.792Z,91.80
2023-05-15T06:11:16.858Z,90.90
2023-05-15T06:21:51.523Z,82.20
2023-05-15T06:32:26.647Z,71.10
2023-05-15T06:43:01.766Z,67.30
2023-05-15T06:53:36.442Z,67.20
2023-05-15T07:04:13.094Z,64.50
2023-05-15T07:14:47.838Z,55.20
2023-05-15T07:25:22.813Z,55.10
2023-05-15T07:35:58.468Z,43.90
2023-05-15T07:46:33.868Z,34.10
2023-05-15T07:57:09.333Z,29.00
2023-05-15T08:07:44.187Z,27.90
2023-05-15T08:18:19.092Z,27.70
2023-05-15T08:28:53.756Z,22.50
2023-05-15T08:39:29.031Z,21.00
2023-05-15T08:50:15.551Z,19.80
2023-05-15T09:00:50.569Z,19.70
2023-05-15T09:11:26.226Z,16.60
2023-05-15T09:22:23.381Z,15.40
2023-05-15T09:33:03.883Z,14.40
2023-05-15T09:43:39.975Z,15.60
2023-05-15T09:54:17.207Z,1.00
2023-05-15T10:04:57.197Z,1.00
2023-05-15T10:15:32.694Z,1.00
2023-05-15T10:26:36.437Z,1.00
2023-05-15T10:37:12.501Z,1.00
2023-05-15T10:47:47.782Z,1.00
2023-05-15T10:58:25.249Z,1.00
2023-05-15T11:09:38.761Z,1.00
2023-05-15T11:20:13.636Z,1.00
2023-05-15T11:30:51.824Z,1.00
2023-05-15T11:41:32.053Z,1.00
2023-05-15T11:52:07.995Z,1.00
2023-05-15T12:02:42.560Z,1.00
2023-05-15T12:13:18.900Z,1.00
2023-05-15T12:24:06.226Z,1.00
2023-05-15T12:34:42.369Z,1.00
2023-05-15T12:45:19.296Z,1.00
2023-05-15T12:55:53.931Z,1.00
2023-05-15T13:06:41.995Z,1.00
2023-05-15T13:17:22.707Z,28.80
2023-05-15T13:28:03.889Z,31.00
2023-05-15T13:38:38.373Z,1.00
2023-05-15T13:49:13.133Z,1.00
2023-05-15T13:59:48.223Z,1.00
2023-05-15T14:10:24.463Z,1.00
2023-05-15T14:20:59.634Z,1.00
2023-05-15T14:31:34.384Z,1.00
2023-05-15T14:42:09.067Z,1.00
2023-05-15T14:52:44.890Z,1.00
2023-05-15T15:03:22.159Z,1.00
2023-05-15T15:13:56.816Z,1.00
2023-05-15T15:24:31.480Z,1.00
2023-05-15T15:35:06.979Z,1.00
2023-05-15T15:45:41.433Z,1.00
2023-05-15T15:56:15.922Z,1.00
2023-05-15T16:06:52.092Z,1.00
2023-05-15T16:17:26.838Z,1.00
2023-05-15T16:28:01.784Z,1.00
2023-05-15T16:38:36.727Z,1.00
2023-05-15T16:49:11.466Z,1.00
2023-05-15T16:59:46.509Z,1.00
2023-05-15T17:10:21.242Z,1.00
2023-05-15T17:20:55.833Z,1.00
2023-05-15T17:31:30.623Z,1.00
2023-05-15T17:42:05.667Z,1.00
2023-05-15T17:52:40.287Z,1.00
2023-05-15T18:03:15.246Z,1.00
2023-05-15T18:13:49.712Z,1.00
2023-05-15T18:24:24.695Z,1.00
2023-05-15T18:35:00.261Z,1.00
2023-05-15T18:45:34.850Z,1.00
2023-05-15T18:56:09.601Z,1.00
2023-05-15T19:06:44.701Z,2.40
2023-05-15T19:17:20.392Z,27.00
2023-05-15T19:27:56.266Z,30.00
2023-05-15T19:38:30.953Z,32.10
2023-05-15T19:49:06.162Z,36.80
2023-05-15T19:59:41.029Z,37.70
2023-05-15T20:10:18.642Z,36.10
2023-05-15T20:20:53.393Z,37.20
2023-05-15T20:31:28.111Z,42.30
2023-05-15T20:42:03.104Z,40.90
2023-05-15T20:52:38.035Z,44.50
2023-05-15T21:03:13.556Z,47.70
2023-05-15T21:13:48.302Z,46.60
2023-05-15T21:24:22.826Z,49.60
2023-05-15T21:34:57.623Z,50.80
2023-05-15T21:45:32.426Z,49.60
2023-05-15T21:56:07.816Z,49.30
2023-05-15T22:06:43.658Z,50.10
2023-05-15T22:17:21.170Z,51.90
2023-05-15T22:27:56.004Z,46.00
2023-05-15T22:38:30.737Z,47.10
2023-05-15T22:49:09.488Z,47.20
2023-05-15T22:59:44.211Z,48.00
2023-05-15T23:10:18.628Z,50.90
2023-05-15T23:20:53.580Z,52.10
2023-05-15T23:31:28.584Z,54.30
2023-05-15T23:42:03.586Z,54.10
2023-05-15T23:52:38.403Z,56.70
